createdAt,value
2024-03-25T00:01:12.818Z,69.30
2024-03-25T00:02:36.768Z,69.52
2024-03-25T00:03:59.367Z,69.29
2024-03-25T00:05:25.984Z,70.06
2024-03-25T00:06:47.206Z,70.02
2024-03-25T00:08:11.236Z,69.48
2024-03-25T00:09:36.885Z,70.15
2024-03-25T00:11:02.539Z,70.21
2024-03-25T00:12:23.104Z,69.94
2024-03-25T00:13:45.315Z,70.58
2024-03-25T00:15:10.995Z,70.71
2024-03-25T00:16:31.970Z,70.19
2024-03-25T00:17:56.447Z,70.80
2024-03-25T00:19:24.863Z,70.23
2024-03-25T00:20:45.695Z,70.69
2024-03-25T00:22:06.710Z,70.67
2024-03-25T00:23:37.012Z,70.25
2024-03-25T00:24:56.841Z,70.40
2024-03-25T00:26:27.182Z,70.63
2024-03-25T00:28:33.825Z,70.67
2024-03-25T00:29:39.370Z,70.59
2024-03-25T00:31:43.308Z,70.94
2024-03-25T00:33:22.333Z,70.30
2024-03-25T00:34:43.211Z,70.78
2024-03-25T00:36:29.583Z,70.80
2024-03-25T00:37:55.572Z,70.42
2024-03-25T00:39:17.224Z,70.63
2024-03-25T00:40:50.719Z,70.69
2024-03-25T00:42:22.798Z,70.88
2024-03-25T00:43:44.100Z,70.26
2024-03-25T00:45:10.526Z,70.65
2024-03-25T00:46:32.874Z,70.78
2024-03-25T00:47:55.857Z,70.58
2024-03-25T00:49:17.879Z,71.12
2024-03-25T00:50:38.473Z,70.51
2024-03-25T00:51:59.360Z,70.85
2024-03-25T00:53:20.668Z,70.47
2024-03-25T00:54:41.565Z,69.93
2024-03-25T00:56:02.103Z,69.97
2024-03-25T00:57:26.249Z,70.57
2024-03-25T00:58:46.820Z,70.41
2024-03-25T01:00:08.181Z,69.82
2024-03-25T01:01:38.839Z,69.94
2024-03-25T01:02:59.645Z,69.66
2024-03-25T01:04:26.696Z,70.42
2024-03-25T01:05:47.654Z,70.59
2024-03-25T01:07:30.343Z,70.23
2024-03-25T01:08:56.138Z,70.46
2024-03-25T01:10:18.699Z,70.62
2024-03-25T01:11:42.514Z,70.89
2024-03-25T01:13:02.813Z,70.51
2024-03-25T01:14:23.591Z,70.62
2024-03-25T01:15:43.875Z,70.65
2024-03-25T01:17:04.360Z,70.77
2024-03-25T01:18:25.476Z,70.68
2024-03-25T01:19:46.384Z,70.75
2024-03-25T01:21:07.769Z,71.40
2024-03-25T01:22:29.071Z,70.39
2024-03-25T01:23:49.668Z,70.80
2024-03-25T01:25:11.696Z,70.74
2024-03-25T01:26:32.494Z,70.46
2024-03-25T01:27:52.790Z,70.68
2024-03-25T01:29:14.487Z,70.41
2024-03-25T01:30:39.280Z,71.14
2024-03-25T01:32:00.379Z,72.07
2024-03-25T01:33:21.790Z,72.54
2024-03-25T01:34:44.117Z,71.79
2024-03-25T01:36:06.008Z,72.26
2024-03-25T01:37:27.456Z,72.04
2024-03-25T01:38:49.020Z,71.95
2024-03-25T01:40:12.490Z,72.42
2024-03-25T01:41:32.699Z,72.97
2024-03-25T01:42:56.878Z,73.06
2024-03-25T01:44:18.118Z,72.23
2024-03-25T01:45:39.284Z,72.96
2024-03-25T01:47:04.885Z,73.18
2024-03-25T01:48:25.579Z,73.73
2024-03-25T01:49:47.242Z,73.69
2024-03-25T01:51:08.368Z,73.72
2024-03-25T01:52:29.145Z,74.33
2024-03-25T01:53:50.297Z,73.89
2024-03-25T01:55:20.308Z,74.32
2024-03-25T01:56:42.211Z,74.49
2024-03-25T01:58:03.709Z,74.10
2024-03-25T01:59:24.926Z,73.84
2024-03-25T02:00:45.990Z,73.79
2024-03-25T02:02:07.510Z,73.63
2024-03-25T02:03:39.622Z,74.29
2024-03-25T02:05:01.034Z,73.99
2024-03-25T02:06:22.753Z,74.18
2024-03-25T02:08:21.427Z,74.05
2024-03-25T02:09:40.072Z,73.83
2024-03-25T02:11:03.619Z,74.71
2024-03-25T02:12:30.452Z,74.82
2024-03-25T02:13:52.072Z,74.50
2024-03-25T02:15:13.562Z,75.34
2024-03-25T02:16:34.646Z,75.06
2024-03-25T02:17:55.254Z,74.86
2024-03-25T02:19:16.235Z,74.89
2024-03-25T02:20:40.930Z,75.14
2024-03-25T02:22:07.147Z,75.05
2024-03-25T02:23:27.339Z,75.34
2024-03-25T02:27:16.980Z,76.27
2024-03-25T02:28:37.731Z,76.51
2024-03-25T02:30:03.205Z,76.71
2024-03-25T02:31:23.986Z,76.38
2024-03-25T02:32:45.588Z,76.02
2024-03-25T02:34:17.578Z,76.38
2024-03-25T02:35:39.610Z,76.78
2024-03-25T02:37:08.996Z,76.82
2024-03-25T02:38:33.091Z,76.23
2024-03-25T02:40:01.108Z,77.13
2024-03-25T02:41:27.758Z,76.27
2024-03-25T02:42:52.508Z,76.41
2024-03-25T02:44:17.094Z,77.00
2024-03-25T02:45:38.239Z,76.95
2024-03-25T02:46:58.320Z,77.06
2024-03-25T02:48:22.038Z,76.79
2024-03-25T02:49:51.993Z,76.45
2024-03-25T02:51:12.371Z,75.99
2024-03-25T02:52:38.447Z,77.18
2024-03-25T02:53:58.481Z,76.85
2024-03-25T02:55:19.500Z,76.63
2024-03-25T02:56:41.880Z,75.98
2024-03-25T02:58:01.883Z,76.62
2024-03-25T02:59:25.805Z,76.72
2024-03-25T03:00:45.874Z,76.86
2024-03-25T03:02:06.826Z,76.49
2024-03-25T03:03:42.625Z,76.25
2024-03-25T03:05:14.175Z,76.28
2024-03-25T03:06:37.853Z,76.84
2024-03-25T03:07:59.169Z,76.46
2024-03-25T03:09:25.442Z,76.68
2024-03-25T03:10:47.177Z,76.93
2024-03-25T03:12:08.702Z,76.99
2024-03-25T03:13:29.289Z,76.89
2024-03-25T03:14:52.845Z,76.67
2024-03-25T03:16:16.480Z,76.44
2024-03-25T03:17:40.974Z,75.66
2024-03-25T03:19:02.062Z,76.53
2024-03-25T03:20:22.957Z,76.66
2024-03-25T03:21:44.500Z,76.11
2024-03-25T03:23:05.914Z,76.13
2024-03-25T03:24:27.207Z,75.91
2024-03-25T03:25:47.270Z,76.48
2024-03-25T03:27:08.907Z,75.48
2024-03-25T03:28:30.035Z,76.25
2024-03-25T03:29:51.934Z,76.03
2024-03-25T03:31:20.995Z,76.00
2024-03-25T03:32:47.652Z,76.57
2024-03-25T03:34:09.574Z,75.68
2024-03-25T03:35:36.009Z,75.86
2024-03-25T03:36:56.797Z,75.38
2024-03-25T03:38:16.860Z,76.11
2024-03-25T03:39:37.328Z,76.51
2024-03-25T03:41:01.891Z,76.48
2024-03-25T03:42:25.064Z,76.51
2024-03-25T03:43:46.200Z,76.09
2024-03-25T03:45:10.882Z,77.17
2024-03-25T03:46:31.985Z,76.81
2024-03-25T03:47:53.161Z,76.77
2024-03-25T03:49:14.502Z,76.83
2024-03-25T03:50:37.819Z,77.37
2024-03-25T03:52:09.509Z,76.76
2024-03-25T03:53:33.267Z,76.89
2024-03-25T03:54:55.070Z,77.01
2024-03-25T03:56:17.294Z,76.37
2024-03-25T03:57:39.339Z,76.52
2024-03-25T03:59:00.138Z,76.39
2024-03-25T04:00:23.476Z,76.18
2024-03-25T04:01:45.047Z,76.32
2024-03-25T04:03:04.841Z,76.53
2024-03-25T04:04:25.229Z,76.87
2024-03-25T04:05:48.258Z,76.32
2024-03-25T04:07:08.635Z,76.78
2024-03-25T04:08:31.419Z,76.65
2024-03-25T04:09:59.929Z,76.46
2024-03-25T04:11:20.350Z,76.44
2024-03-25T04:12:40.447Z,76.46
2024-03-25T04:14:19.913Z,76.66
2024-03-25T04:17:49.244Z,76.47
2024-03-25T04:19:13.356Z,76.72
2024-03-25T04:20:41.232Z,76.59
2024-03-25T04:22:11.503Z,76.27
2024-03-25T04:23:39.145Z,76.65
2024-03-25T04:24:59.912Z,76.05
2024-03-25T04:26:19.622Z,75.94
2024-03-25T04:27:41.326Z,76.13
2024-03-25T04:29:01.850Z,75.11
2024-03-25T04:30:26.237Z,75.62
2024-03-25T04:31:50.108Z,76.24
2024-03-25T04:33:14.668Z,76.33
2024-03-25T04:36:52.085Z,76.35
2024-03-25T04:38:18.562Z,75.54
2024-03-25T04:39:39.267Z,75.38
2024-03-25T04:41:23.117Z,75.92
2024-03-25T04:42:46.731Z,75.56
2024-03-25T04:44:22.847Z,75.65
2024-03-25T04:45:49.381Z,76.07
2024-03-25T04:47:09.907Z,75.74
2024-03-25T04:48:31.316Z,75.39
2024-03-25T04:49:52.629Z,75.76
2024-03-25T04:51:14.313Z,75.69
2024-03-25T04:52:34.638Z,75.38
2024-03-25T04:53:55.656Z,74.77
2024-03-25T04:55:15.921Z,75.05
2024-03-25T04:56:36.833Z,75.42
2024-03-25T04:57:58.051Z,75.41
2024-03-25T04:59:19.123Z,74.81
2024-03-25T05:00:42.811Z,74.58
2024-03-25T05:02:04.152Z,74.72
2024-03-25T05:03:25.177Z,74.63
2024-03-25T05:04:46.066Z,74.68
2024-03-25T05:06:09.734Z,74.88
2024-03-25T05:07:31.234Z,75.01
2024-03-25T05:08:51.796Z,74.45
2024-03-25T05:10:15.657Z,74.89
2024-03-25T05:11:36.992Z,74.83
2024-03-25T05:13:38.364Z,75.38
2024-03-25T05:14:52.201Z,74.60
2024-03-25T05:16:28.482Z,74.28
2024-03-25T05:17:48.230Z,74.67
2024-03-25T05:19:11.300Z,74.70
2024-03-25T05:20:34.131Z,74.62
2024-03-25T05:21:54.875Z,74.18
2024-03-25T05:23:16.143Z,74.21
2024-03-25T05:25:15.327Z,74.19
2024-03-25T05:26:48.312Z,73.85
2024-03-25T05:28:14.111Z,73.94
2024-03-25T05:29:35.482Z,73.55
2024-03-25T05:31:02.644Z,73.83
2024-03-25T05:32:23.978Z,73.85
2024-03-25T05:34:16.580Z,74.79
2024-03-25T05:35:41.692Z,73.92
2024-03-25T05:37:12.422Z,74.23
2024-03-25T05:38:33.216Z,73.91
2024-03-25T05:39:53.412Z,73.94
2024-03-25T05:41:17.343Z,74.78
2024-03-25T05:42:38.965Z,74.07
2024-03-25T05:43:59.474Z,74.10
2024-03-25T05:45:22.417Z,73.90
2024-03-25T05:46:45.720Z,73.63
2024-03-25T05:48:08.856Z,73.52
2024-03-25T05:49:50.897Z,73.31
2024-03-25T05:52:27.985Z,73.73
2024-03-25T05:53:57.451Z,73.80
2024-03-25T05:55:47.632Z,73.82
2024-03-25T05:57:14.694Z,74.28
2024-03-25T05:59:20.933Z,74.34
2024-03-25T06:00:48.722Z,74.59
2024-03-25T06:05:05.248Z,73.84
2024-03-25T06:06:29.601Z,74.35
2024-03-25T06:09:04.441Z,73.86
2024-03-25T06:10:56.946Z,73.50
2024-03-25T06:12:26.056Z,74.00
2024-03-25T06:13:55.511Z,73.47
2024-03-25T06:15:33.357Z,73.50
2024-03-25T06:19:54.459Z,73.05
2024-03-25T06:22:14.952Z,72.71
2024-03-25T06:24:19.685Z,72.48
2024-03-25T06:25:43.056Z,72.22
2024-03-25T06:27:29.634Z,72.31
2024-03-25T06:29:37.718Z,72.62
2024-03-25T06:31:24.252Z,72.22
2024-03-25T06:36:03.455Z,71.29
2024-03-25T06:39:29.835Z,72.27
2024-03-25T06:41:40.569Z,71.24
2024-03-25T06:43:00.298Z,70.35
2024-03-25T06:44:23.715Z,70.30
2024-03-25T06:45:43.692Z,71.38
2024-03-25T06:47:09.941Z,70.81
2024-03-25T06:48:34.966Z,69.88
2024-03-25T06:50:37.076Z,70.21
2024-03-25T06:52:07.127Z,69.87
2024-03-25T06:54:03.277Z,70.36
2024-03-25T06:55:36.638Z,69.98
2024-03-25T06:56:59.035Z,70.56
2024-03-25T06:58:26.351Z,69.44
2024-03-25T07:00:02.506Z,68.78
2024-03-25T07:01:35.953Z,69.49
2024-03-25T07:04:44.631Z,69.56
2024-03-25T07:06:05.896Z,69.43
2024-03-25T07:07:41.287Z,70.00
2024-03-25T07:09:01.769Z,69.96
2024-03-25T07:10:29.191Z,69.37
2024-03-25T07:12:41.684Z,69.14
2024-03-25T07:14:02.555Z,69.09
2024-03-25T07:16:13.414Z,68.70
2024-03-25T07:17:47.160Z,67.73
2024-03-25T07:19:09.590Z,68.29
2024-03-25T07:20:54.153Z,67.38
2024-03-25T07:22:19.170Z,67.46
2024-03-25T07:23:44.070Z,66.32
2024-03-25T07:25:05.685Z,66.47
2024-03-25T07:26:27.494Z,65.98
2024-03-25T07:27:57.379Z,66.24
2024-03-25T07:29:26.888Z,65.13
2024-03-25T07:30:48.606Z,65.46
2024-03-25T07:32:09.942Z,64.82
2024-03-25T07:33:31.000Z,65.68
2024-03-25T07:34:52.183Z,65.02
2024-03-25T07:36:12.993Z,64.55
2024-03-25T07:37:34.453Z,64.37
2024-03-25T07:38:55.606Z,64.53
2024-03-25T07:42:37.429Z,64.74
2024-03-25T07:44:28.726Z,63.39
2024-03-25T07:45:45.298Z,62.49
2024-03-25T07:47:07.003Z,61.60
2024-03-25T07:48:28.423Z,62.16
2024-03-25T07:49:49.346Z,61.87
2024-03-25T07:51:10.839Z,60.71
2024-03-25T07:52:31.666Z,60.97
2024-03-25T07:53:52.724Z,61.85
2024-03-25T07:55:13.211Z,60.46
2024-03-25T07:56:37.272Z,60.43
2024-03-25T07:57:57.989Z,60.34
2024-03-25T07:59:19.552Z,60.01
2024-03-25T08:00:41.062Z,59.75
2024-03-25T08:02:01.066Z,59.28
2024-03-25T08:03:21.361Z,59.87
2024-03-25T08:04:42.215Z,58.68
2024-03-25T08:06:03.860Z,59.55
2024-03-25T08:07:24.886Z,58.70
2024-03-25T08:08:45.996Z,58.28
2024-03-25T08:10:05.821Z,58.03
2024-03-25T08:11:26.937Z,57.90
2024-03-25T08:12:48.811Z,56.48
2024-03-25T08:14:09.654Z,56.89
2024-03-25T08:15:30.346Z,56.67
2024-03-25T08:16:52.527Z,56.27
2024-03-25T08:18:15.520Z,56.50
2024-03-25T08:19:36.322Z,56.93
2024-03-25T08:20:57.137Z,56.85
2024-03-25T08:22:19.004Z,56.07
2024-03-25T08:23:38.881Z,56.30
2024-03-25T08:25:00.520Z,56.51
2024-03-25T08:26:21.004Z,56.55
2024-03-25T08:27:42.757Z,56.33
2024-03-25T08:29:04.286Z,56.03
2024-03-25T08:30:25.422Z,55.35
2024-03-25T08:31:48.596Z,55.81
2024-03-25T08:33:09.804Z,56.05
2024-03-25T08:34:31.087Z,55.38
2024-03-25T08:35:52.179Z,54.18
2024-03-25T08:37:13.452Z,54.60
2024-03-25T08:38:34.006Z,55.03
2024-03-25T08:39:54.987Z,53.95
2024-03-25T08:41:16.262Z,54.21
2024-03-25T08:42:36.539Z,53.45
2024-03-25T08:43:57.088Z,53.38
2024-03-25T08:45:18.638Z,53.23
2024-03-25T08:46:39.285Z,54.09
2024-03-25T08:48:01.108Z,52.75
2024-03-25T08:49:22.199Z,53.75
2024-03-25T08:50:44.394Z,53.40
2024-03-25T08:52:06.006Z,53.56
2024-03-25T08:53:27.320Z,53.00
2024-03-25T08:54:48.855Z,51.56
2024-03-25T08:56:10.050Z,52.86
2024-03-25T08:57:30.815Z,51.92
2024-03-25T08:58:54.970Z,53.28
2024-03-25T09:00:18.907Z,52.13
2024-03-25T09:01:40.830Z,51.86
2024-03-25T09:03:01.365Z,51.05
2024-03-25T09:04:27.921Z,51.65
2024-03-25T09:05:49.178Z,52.05
2024-03-25T09:07:11.007Z,51.47
2024-03-25T09:08:52.632Z,50.73
2024-03-25T09:10:32.127Z,50.14
2024-03-25T09:11:52.571Z,51.74
2024-03-25T09:13:15.515Z,50.70
2024-03-25T09:14:38.881Z,50.20
2024-03-25T09:15:59.288Z,50.60
2024-03-25T09:17:20.871Z,49.82
2024-03-25T09:18:42.603Z,49.54
2024-03-25T09:20:04.957Z,49.60
2024-03-25T09:21:27.719Z,49.07
2024-03-25T09:22:51.050Z,49.68
2024-03-25T09:24:12.344Z,48.81
2024-03-25T09:25:39.248Z,48.51
2024-03-25T09:27:04.183Z,47.09
2024-03-25T09:28:31.374Z,47.55
2024-03-25T09:29:57.392Z,46.25
2024-03-25T09:31:19.464Z,46.98
2024-03-25T09:32:40.542Z,44.93
2024-03-25T09:34:04.309Z,44.79
2024-03-25T09:35:24.940Z,45.14
2024-03-25T09:36:45.126Z,45.68
2024-03-25T09:38:10.293Z,44.00
2024-03-25T09:39:34.229Z,44.39
2024-03-25T09:40:54.928Z,43.24
2024-03-25T09:42:26.455Z,42.50
2024-03-25T09:43:53.731Z,42.78
2024-03-25T09:45:17.438Z,43.91
2024-03-25T09:46:37.167Z,45.14
2024-03-25T09:47:57.771Z,44.55
2024-03-25T09:49:18.965Z,45.19
2024-03-25T09:50:40.461Z,44.93
2024-03-25T09:52:00.843Z,44.38
2024-03-25T09:53:21.559Z,42.19
2024-03-25T09:54:41.766Z,42.99
2024-03-25T09:56:03.576Z,43.04
2024-03-25T09:57:24.121Z,43.31
2024-03-25T09:58:45.214Z,43.80
2024-03-25T10:00:07.611Z,43.36
2024-03-25T10:01:29.221Z,42.91
2024-03-25T10:02:52.011Z,42.99
2024-03-25T10:04:14.536Z,44.05
2024-03-25T10:05:37.284Z,43.19
2024-03-25T10:07:00.764Z,43.73
2024-03-25T10:08:26.581Z,43.40
2024-03-25T10:09:47.713Z,43.45
2024-03-25T10:11:10.891Z,43.12
2024-03-25T10:12:31.912Z,43.91
2024-03-25T10:13:56.403Z,43.05
2024-03-25T10:15:18.030Z,43.51
2024-03-25T10:16:41.250Z,43.29
2024-03-25T10:18:02.194Z,43.02
2024-03-25T10:19:24.678Z,43.92
2024-03-25T10:20:53.271Z,44.35
2024-03-25T10:22:15.296Z,44.59
2024-03-25T10:23:40.718Z,42.90
2024-03-25T10:25:01.912Z,42.95
2024-03-25T10:26:31.900Z,42.81
2024-03-25T10:27:59.292Z,43.29
2024-03-25T10:29:18.987Z,43.19
2024-03-25T10:30:41.123Z,41.81
2024-03-25T10:32:02.081Z,42.28
2024-03-25T10:33:25.243Z,40.95
2024-03-25T10:34:47.011Z,40.13
2024-03-25T10:36:15.259Z,41.37
2024-03-25T10:37:37.116Z,41.15
2024-03-25T10:39:04.287Z,42.78
2024-03-25T10:40:29.339Z,43.08
2024-03-25T10:41:51.535Z,42.85
2024-03-25T10:43:13.889Z,42.88
2024-03-25T10:44:34.356Z,41.93
2024-03-25T10:45:57.549Z,41.03
2024-03-25T10:47:25.873Z,41.37
2024-03-25T10:49:04.287Z,41.89
2024-03-25T10:50:32.363Z,41.17
2024-03-25T10:51:54.707Z,40.38
2024-03-25T10:53:21.141Z,40.00
2024-03-25T10:54:44.248Z,40.68
2024-03-25T10:56:05.648Z,40.88
2024-03-25T10:57:29.250Z,40.91
2024-03-25T10:58:51.344Z,40.08
2024-03-25T11:00:15.240Z,39.46
2024-03-25T11:01:38.679Z,40.00
2024-03-25T11:03:03.298Z,39.00
2024-03-25T11:04:25.614Z,40.49
2024-03-25T11:05:46.860Z,40.23
2024-03-25T11:07:15.145Z,39.27
2024-03-25T11:08:36.506Z,38.85
2024-03-25T11:10:07.507Z,37.54
2024-03-25T11:11:35.388Z,37.98
2024-03-25T11:12:57.161Z,39.41
2024-03-25T11:14:19.021Z,39.00
2024-03-25T11:15:47.157Z,38.02
2024-03-25T11:17:16.673Z,36.72
2024-03-25T11:18:39.390Z,37.96
2024-03-25T11:20:18.269Z,37.08
2024-03-25T11:21:40.048Z,37.03
2024-03-25T11:23:10.165Z,36.31
2024-03-25T11:24:40.100Z,35.80
2024-03-25T11:26:02.997Z,36.09
2024-03-25T11:27:40.265Z,35.76
2024-03-25T11:29:01.420Z,35.67
2024-03-25T11:30:26.704Z,36.44
2024-03-25T11:31:50.451Z,37.16
2024-03-25T11:33:12.263Z,37.57
2024-03-25T11:34:33.993Z,37.15
2024-03-25T11:35:55.660Z,37.83
2024-03-25T11:37:16.748Z,37.63
2024-03-25T11:38:43.456Z,37.63
2024-03-25T11:40:07.092Z,38.03
2024-03-25T11:41:30.358Z,39.35
2024-03-25T11:42:52.189Z,39.61
2024-03-25T11:44:12.946Z,40.02
2024-03-25T11:45:34.778Z,40.76
2024-03-25T11:46:57.135Z,40.41
2024-03-25T11:48:17.757Z,38.96
2024-03-25T11:49:40.675Z,39.89
2024-03-25T11:51:05.648Z,40.01
2024-03-25T11:52:32.773Z,41.18
2024-03-25T11:53:54.890Z,40.33
2024-03-25T11:55:21.034Z,41.42
2024-03-25T11:56:44.786Z,42.61
2024-03-25T11:58:06.491Z,45.89
2024-03-25T11:59:28.211Z,46.62
2024-03-25T12:00:51.959Z,47.17
2024-03-25T12:02:14.158Z,46.30
2024-03-25T12:03:42.671Z,46.48
2024-03-25T12:05:04.592Z,47.86
2024-03-25T12:06:24.737Z,47.15
2024-03-25T12:07:45.175Z,49.06
2024-03-25T12:09:24.169Z,48.88
2024-03-25T12:11:04.115Z,48.10
2024-03-25T12:12:25.855Z,49.12
2024-03-25T12:13:47.628Z,48.62
2024-03-25T12:15:08.697Z,48.38
2024-03-25T12:16:32.128Z,46.11
2024-03-25T12:17:54.041Z,46.77
2024-03-25T12:19:16.186Z,46.16
2024-03-25T12:20:38.317Z,45.33
2024-03-25T12:22:04.408Z,44.78
2024-03-25T12:23:31.295Z,46.03
2024-03-25T12:24:53.164Z,43.01
2024-03-25T12:26:15.079Z,42.59
2024-03-25T12:27:37.998Z,39.92
2024-03-25T12:29:00.354Z,38.72
2024-03-25T12:30:20.756Z,38.71
2024-03-25T12:31:41.721Z,38.94
2024-03-25T12:33:02.817Z,39.30
2024-03-25T12:34:25.982Z,39.86
2024-03-25T12:35:51.751Z,40.90
2024-03-25T12:37:16.976Z,38.39
2024-03-25T12:38:36.678Z,38.62
2024-03-25T12:40:00.295Z,39.32
2024-03-25T12:41:23.343Z,38.91
2024-03-25T12:42:44.283Z,39.17
2024-03-25T12:44:05.260Z,39.27
2024-03-25T12:45:25.943Z,37.35
2024-03-25T12:46:46.145Z,36.59
2024-03-25T12:48:08.243Z,35.66
2024-03-25T12:49:27.961Z,37.00
2024-03-25T12:50:48.938Z,36.18
2024-03-25T12:52:09.409Z,36.16
2024-03-25T12:53:31.136Z,36.30
2024-03-25T12:54:52.517Z,37.38
2024-03-25T12:56:13.426Z,36.32
2024-03-25T12:57:35.440Z,37.13
2024-03-25T12:58:56.351Z,35.79
2024-03-25T13:00:18.160Z,34.43
2024-03-25T13:01:39.037Z,35.14
2024-03-25T13:03:00.380Z,33.57
2024-03-25T13:04:22.985Z,32.46
2024-03-25T13:05:47.211Z,31.64
2024-03-25T13:07:09.847Z,30.87
2024-03-25T13:08:30.973Z,30.41
2024-03-25T13:09:52.519Z,29.77
2024-03-25T13:11:18.150Z,29.40
2024-03-25T13:12:40.031Z,29.42
2024-03-25T13:14:01.100Z,31.14
2024-03-25T13:15:22.596Z,31.38
2024-03-25T13:16:45.411Z,31.25
2024-03-25T13:18:07.260Z,32.24
2024-03-25T13:19:29.453Z,31.73
2024-03-25T13:20:51.266Z,30.57
2024-03-25T13:22:17.232Z,29.94
2024-03-25T13:23:39.794Z,30.08
2024-03-25T13:25:01.427Z,29.18
2024-03-25T13:26:21.456Z,28.32
2024-03-25T13:27:42.423Z,27.70
2024-03-25T13:29:03.135Z,27.64
2024-03-25T13:30:25.107Z,27.08
2024-03-25T13:31:47.355Z,25.96
2024-03-25T13:33:10.002Z,26.40
2024-03-25T13:34:32.145Z,27.41
2024-03-25T13:35:53.877Z,25.44
2024-03-25T13:37:15.413Z,25.84
2024-03-25T13:38:37.128Z,25.75
2024-03-25T13:39:58.851Z,25.91
2024-03-25T13:41:22.885Z,27.81
2024-03-25T13:42:47.427Z,26.71
2024-03-25T13:44:08.663Z,26.60
2024-03-25T13:45:29.556Z,27.38
2024-03-25T13:46:51.975Z,28.25
2024-03-25T13:48:13.576Z,29.41
2024-03-25T13:49:37.933Z,29.80
2024-03-25T13:51:15.842Z,31.12
2024-03-25T13:52:39.612Z,29.76
2024-03-25T13:54:00.476Z,29.47
2024-03-25T13:55:22.414Z,28.63
2024-03-25T13:56:44.342Z,28.16
2024-03-25T13:58:07.236Z,27.19
2024-03-25T13:59:27.700Z,26.83
2024-03-25T14:00:49.231Z,28.52
2024-03-25T14:02:10.767Z,29.76
2024-03-25T14:03:31.052Z,29.78
2024-03-25T14:04:52.186Z,31.00
2024-03-25T14:06:13.062Z,29.82
2024-03-25T14:07:33.298Z,29.07
2024-03-25T14:08:55.685Z,28.59
2024-03-25T14:10:17.718Z,28.01
2024-03-25T14:11:40.214Z,29.22
2024-03-25T14:13:01.322Z,29.47
2024-03-25T14:14:22.564Z,30.40
2024-03-25T14:15:44.099Z,32.31
2024-03-25T14:17:06.070Z,33.31
2024-03-25T14:18:27.647Z,33.52
2024-03-25T14:19:53.987Z,34.47
2024-03-25T14:21:15.535Z,33.29
2024-03-25T14:22:37.690Z,33.14
2024-03-25T14:23:59.076Z,32.84
2024-03-25T14:25:20.280Z,32.96
2024-03-25T14:26:42.754Z,32.51
2024-03-25T14:28:05.793Z,31.09
2024-03-25T14:29:26.626Z,30.13
2024-03-25T14:30:49.535Z,29.47
2024-03-25T14:32:10.580Z,30.02
2024-03-25T14:33:33.680Z,30.96
2024-03-25T14:34:56.053Z,30.77
2024-03-25T14:36:18.552Z,31.36
2024-03-25T14:37:39.128Z,30.26
2024-03-25T14:38:58.738Z,29.54
2024-03-25T14:40:20.085Z,29.15
2024-03-25T14:41:41.045Z,29.27
2024-03-25T14:43:02.474Z,29.50
2024-03-25T14:44:24.057Z,30.76
2024-03-25T14:45:44.617Z,30.93
2024-03-25T14:47:06.490Z,32.15
2024-03-25T14:48:27.441Z,31.70
2024-03-25T14:49:52.373Z,32.87
2024-03-25T14:51:13.395Z,32.93
2024-03-25T14:52:35.402Z,33.43
2024-03-25T14:53:57.488Z,33.67
2024-03-25T14:55:17.614Z,33.71
2024-03-25T14:56:38.266Z,34.78
2024-03-25T14:57:59.511Z,33.86
2024-03-25T14:59:27.784Z,34.36
2024-03-25T15:00:49.370Z,34.44
2024-03-25T15:02:13.384Z,34.30
2024-03-25T15:03:47.150Z,34.56
2024-03-25T15:05:09.448Z,33.76
2024-03-25T15:06:30.059Z,33.66
2024-03-25T15:07:50.489Z,33.49
2024-03-25T15:09:15.005Z,33.56
2024-03-25T15:10:36.397Z,33.09
2024-03-25T15:11:58.373Z,32.99
2024-03-25T15:13:19.594Z,32.55
2024-03-25T15:14:40.368Z,32.37
2024-03-25T15:16:06.469Z,31.76
2024-03-25T15:17:29.754Z,31.12
2024-03-25T15:18:55.628Z,32.32
2024-03-25T15:20:25.333Z,32.00
2024-03-25T15:21:48.144Z,31.58
2024-03-25T15:23:16.727Z,30.21
2024-03-25T15:24:38.609Z,30.21
2024-03-25T15:26:02.469Z,30.01
2024-03-25T15:27:26.030Z,30.52
2024-03-25T15:28:50.105Z,30.77
2024-03-25T15:30:10.527Z,30.37
2024-03-25T15:31:30.766Z,30.54
2024-03-25T15:32:50.581Z,28.96
2024-03-25T15:34:11.572Z,28.67
2024-03-25T15:35:34.550Z,27.87
2024-03-25T15:36:56.646Z,27.44
2024-03-25T15:40:24.446Z,26.39
2024-03-25T15:41:55.621Z,26.50
2024-03-25T15:43:19.338Z,26.28
2024-03-25T15:44:40.586Z,26.21
2024-03-25T15:46:08.317Z,25.98
2024-03-25T15:47:32.943Z,27.08
2024-03-25T15:48:54.946Z,26.43
2024-03-25T15:50:17.661Z,27.29
2024-03-25T15:51:42.958Z,27.40
2024-03-25T15:53:04.606Z,26.56
2024-03-25T15:54:30.146Z,27.65
2024-03-25T15:55:53.641Z,26.94
2024-03-25T15:57:15.436Z,26.71
2024-03-25T15:59:02.391Z,27.01
2024-03-25T16:00:22.276Z,26.69
2024-03-25T16:01:43.015Z,27.06
2024-03-25T16:03:04.317Z,27.70
2024-03-25T16:04:53.038Z,27.83
2024-03-25T16:06:23.446Z,28.05
2024-03-25T16:08:43.575Z,28.95
2024-03-25T16:10:05.860Z,30.44
2024-03-25T16:11:27.459Z,30.71
2024-03-25T16:12:49.643Z,31.23
2024-03-25T16:14:11.880Z,31.45
2024-03-25T16:15:37.313Z,33.11
2024-03-25T16:16:58.243Z,32.03
2024-03-25T16:18:22.708Z,33.65
2024-03-25T16:19:44.757Z,34.13
2024-03-25T16:21:18.716Z,35.52
2024-03-25T16:22:39.316Z,35.02
2024-03-25T16:24:00.776Z,34.45
2024-03-25T16:25:44.279Z,33.83
2024-03-25T16:27:05.552Z,34.09
2024-03-25T16:28:25.746Z,34.67
2024-03-25T16:29:46.702Z,37.29
2024-03-25T16:31:07.594Z,37.94
2024-03-25T16:32:37.743Z,37.66
2024-03-25T16:33:59.693Z,38.71
2024-03-25T16:35:23.160Z,37.47
2024-03-25T16:36:44.253Z,37.19
2024-03-25T16:38:05.529Z,37.98
2024-03-25T16:39:28.259Z,38.14
2024-03-25T16:40:50.402Z,38.95
2024-03-25T16:42:15.714Z,39.84
2024-03-25T16:43:37.548Z,39.74
2024-03-25T16:45:00.587Z,40.53
2024-03-25T16:46:21.035Z,41.85
2024-03-25T16:47:44.912Z,41.88
2024-03-25T16:49:06.447Z,42.23
2024-03-25T16:50:28.192Z,42.74
2024-03-25T16:52:44.689Z,42.71
2024-03-25T16:54:06.298Z,43.38
2024-03-25T16:55:53.800Z,44.64
2024-03-25T16:57:18.398Z,45.38
2024-03-25T16:58:46.010Z,46.81
2024-03-25T17:00:47.321Z,46.40
2024-03-25T17:02:47.103Z,46.41
2024-03-25T17:04:29.785Z,47.89
2024-03-25T17:06:00.772Z,47.75
2024-03-25T17:07:50.435Z,47.57
2024-03-25T17:09:18.583Z,48.47
2024-03-25T17:12:31.238Z,48.52
2024-03-25T17:13:52.464Z,47.81
2024-03-25T17:15:17.477Z,48.40
2024-03-25T17:16:39.677Z,47.77
2024-03-25T17:18:14.748Z,48.35
2024-03-25T17:20:03.855Z,49.04
2024-03-25T17:21:24.475Z,49.00
2024-03-25T17:22:50.322Z,48.15
2024-03-25T17:24:20.384Z,49.31
2024-03-25T17:25:43.379Z,49.75
2024-03-25T17:27:13.618Z,49.82
2024-03-25T17:28:36.305Z,49.95
2024-03-25T17:29:59.748Z,49.70
2024-03-25T17:31:29.668Z,48.90
2024-03-25T17:32:53.481Z,49.12
2024-03-25T17:34:19.985Z,49.51
2024-03-25T17:35:55.835Z,49.20
2024-03-25T17:37:20.375Z,49.97
2024-03-25T17:39:04.599Z,49.23
2024-03-25T17:40:28.035Z,50.78
2024-03-25T17:41:54.133Z,50.17
2024-03-25T17:43:20.522Z,51.40
2024-03-25T17:45:01.690Z,51.03
2024-03-25T17:46:23.591Z,51.23
2024-03-25T17:47:50.773Z,50.47
2024-03-25T17:49:11.134Z,51.25
2024-03-25T17:50:32.190Z,52.04
2024-03-25T17:51:53.336Z,52.10
2024-03-25T17:53:13.849Z,52.95
2024-03-25T17:54:40.474Z,53.18
2024-03-25T17:56:01.970Z,53.32
2024-03-25T17:57:43.854Z,53.50
2024-03-25T17:59:08.968Z,53.37
2024-03-25T18:00:45.164Z,53.48
2024-03-25T18:02:09.209Z,53.51
2024-03-25T18:03:33.289Z,52.61
2024-03-25T18:05:08.794Z,52.67
2024-03-25T18:06:29.800Z,53.29
2024-03-25T18:08:01.736Z,53.43
2024-03-25T18:09:30.986Z,53.09
2024-03-25T18:11:33.253Z,52.47
2024-03-25T18:12:55.575Z,53.09
2024-03-25T18:14:20.132Z,52.93
2024-03-25T18:15:50.419Z,52.92
2024-03-25T18:17:15.768Z,54.00
2024-03-25T18:18:44.124Z,53.98
2024-03-25T18:20:06.099Z,53.92
2024-03-25T18:21:30.126Z,54.60
2024-03-25T18:22:52.018Z,54.27
2024-03-25T18:24:15.722Z,53.80
2024-03-25T18:25:41.449Z,54.58
2024-03-25T18:27:33.888Z,54.59
2024-03-25T18:28:58.318Z,55.03
2024-03-25T18:30:26.938Z,54.26
2024-03-25T18:31:51.686Z,53.77
2024-03-25T18:33:14.943Z,54.57
2024-03-25T18:34:37.042Z,55.14
2024-03-25T18:36:03.486Z,54.66
2024-03-25T18:37:57.031Z,55.61
2024-03-25T18:39:24.569Z,55.94
2024-03-25T18:41:12.296Z,55.71
2024-03-25T18:42:38.509Z,54.67
2024-03-25T18:44:00.153Z,54.99
2024-03-25T18:45:21.089Z,56.06